Time;durP1;ratioP1;P1;durP2;ratioP2;P2;SDS_P1;SDS_P2;PMS_P1;PMS_P2;Temp;Humidity;BMP_temperature;BMP_pressure;BME280_temperature;BME280_humidity;BME280_pressure;Samples;Min_cycle;Max_cycle;Signal;HPM_P1;HPM_P2
2021/09/21 00:00:58;;;;;;;6.30;3.90;;;14.70;99.90;;;;;;5067870;28;20425;-76
2021/09/21 00:03:24;;;;;;;6.68;4.30;;;14.70;99.90;;;;;;5070230;28;20017;-76
2021/09/21 00:05:49;;;;;;;5.90;4.18;;;14.60;99.90;;;;;;5066836;28;20079;-77
2021/09/21 00:08:15;;;;;;;8.13;4.97;;;14.70;99.90;;;;;;5065284;28;20025;-77
2021/09/21 00:10:41;;;;;;;4.30;3.60;;;14.60;99.90;;;;;;5071560;28;20036;-77
2021/09/21 00:13:06;;;;;;;5.93;4.57;;;14.60;99.90;;;;;;5075464;28;20039;-76
2021/09/21 00:15:32;;;;;;;7.03;4.30;;;14.60;99.90;;;;;;5072307;28;20045;-76
2021/09/21 00:17:58;;;;;;;5.03;3.97;;;14.60;99.90;;;;;;5071784;28;20021;-76
2021/09/21 00:20:23;;;;;;;7.25;3.88;;;14.60;99.90;;;;;;5076405;28;20416;-77
2021/09/21 00:22:49;;;;;;;6.13;4.50;;;14.60;99.90;;;;;;5069943;28;20024;-77
2021/09/21 00:25:15;;;;;;;7.57;4.70;;;14.60;99.90;;;;;;5065910;28;20467;-77
2021/09/21 00:27:42;;;;;;;8.55;4.78;;;14.50;99.90;;;;;;5071612;28;20423;-76
2021/09/21 00:30:09;;;;;;;7.13;4.45;;;14.50;99.90;;;;;;5074505;28;20031;-76
2021/09/21 00:32:35;;;;;;;6.40;4.50;;;14.50;99.90;;;;;;5076972;28;20369;-77
2021/09/21 00:35:00;;;;;;;6.15;4.53;;;14.60;99.90;;;;;;5076492;28;20036;-76
2021/09/21 00:37:26;;;;;;;4.32;3.92;;;14.60;99.90;;;;;;5072919;28;20444;-79
2021/09/21 00:39:52;;;;;;;6.97;4.80;;;14.60;99.90;;;;;;5072743;28;20032;-78
2021/09/21 00:42:28;;;;;;;6.35;4.20;;;14.60;99.90;;;;;;5072939;28;20024;-76
2021/09/21 00:44:59;;;;;;;5.38;4.38;;;14.60;99.90;;;;;;5072205;28;21385;-76
2021/09/21 00:47:26;;;;;;;5.90;4.63;;;14.60;99.90;;;;;;5074421;28;20107;-76
2021/09/21 00:49:52;;;;;;;6.35;4.60;;;14.60;99.90;;;;;;5072100;28;20029;-76
2021/09/21 00:52:19;;;;;;;8.02;4.93;;;14.60;99.90;;;;;;5070621;28;20021;-77
2021/09/21 00:54:45;;;;;;;6.57;5.30;;;14.60;99.90;;;;;;5064097;28;20059;-78
2021/09/21 00:57:11;;;;;;;9.75;5.00;;;14.60;99.90;;;;;;5073259;28;20024;-77
2021/09/21 00:59:37;;;;;;;10.63;5.20;;;14.60;99.90;;;;;;5070767;28;20134;-77
2021/09/21 01:02:02;;;;;;;5.82;5.03;;;14.60;99.90;;;;;;5068368;28;20445;-76
2021/09/21 01:04:29;;;;;;;6.93;5.03;;;14.50;99.90;;;;;;5070035;28;20714;-77
2021/09/21 01:06:55;;;;;;;5.65;5.03;;;14.60;99.90;;;;;;5067514;28;20083;-77
2021/09/21 01:09:23;;;;;;;7.70;5.78;;;14.50;99.90;;;;;;5071105;28;20465;-77
2021/09/21 01:11:51;;;;;;;7.03;5.07;;;14.50;99.90;;;;;;5071818;28;20472;-77
2021/09/21 01:14:17;;;;;;;6.80;5.70;;;14.50;99.90;;;;;;5073139;28;20028;-77
2021/09/21 01:16:43;;;;;;;6.15;5.05;;;14.60;99.90;;;;;;5069345;28;20473;-77
2021/09/21 01:19:13;;;;;;;7.78;5.55;;;14.50;99.90;;;;;;5072634;28;20071;-77
2021/09/21 01:21:43;;;;;;;8.57;5.35;;;14.50;99.90;;;;;;5073347;28;20477;-79
2021/09/21 01:24:10;;;;;;;8.45;5.15;;;14.40;99.90;;;;;;5065781;28;20024;-76
2021/09/21 01:26:36;;;;;;;10.50;5.20;;;14.40;99.90;;;;;;5071719;28;20036;-76
2021/09/21 01:29:02;;;;;;;8.18;5.25;;;14.50;99.90;;;;;;5070612;28;20025;-76
2021/09/21 01:31:28;;;;;;;6.18;5.32;;;14.50;99.90;;;;;;5077024;28;20025;-76
2021/09/21 01:33:54;;;;;;;12.30;6.00;;;14.40;99.90;;;;;;5070655;28;20073;-76
2021/09/21 01:36:22;;;;;;;6.78;5.90;;;14.30;99.90;;;;;;5074886;28;20082;-76
2021/09/21 01:38:49;;;;;;;6.85;5.30;;;14.40;99.90;;;;;;5068448;28;20032;-76
2021/09/21 01:41:15;;;;;;;9.50;6.15;;;14.30;99.90;;;;;;5069134;28;20086;-77
2021/09/21 01:43:43;;;;;;;9.05;5.90;;;14.40;99.90;;;;;;5088134;28;20426;-76
2021/09/21 01:46:09;;;;;;;6.85;5.93;;;14.40;99.90;;;;;;5066801;28;20081;-77
2021/09/21 01:48:35;;;;;;;9.65;5.68;;;14.40;99.90;;;;;;5064696;28;20028;-77
2021/09/21 01:51:03;;;;;;;6.35;5.28;;;14.30;99.90;;;;;;5072276;28;20020;-76
2021/09/21 01:58:54;;;;;;;8.77;6.18;;;14.30;99.90;;;;;;5070076;28;20043;-76
2021/09/21 02:01:24;;;;;;;5.90;5.10;;;14.30;99.90;;;;;;5070319;28;20024;-76
2021/09/21 02:03:53;;;;;;;7.35;5.50;;;14.30;99.90;;;;;;5069748;28;20024;-76
2021/09/21 02:06:22;;;;;;;6.22;5.65;;;14.20;99.90;;;;;;5070192;28;20107;-76
2021/09/21 02:08:48;;;;;;;7.30;6.25;;;14.30;99.90;;;;;;5069523;28;20028;-78
2021/09/21 02:11:14;;;;;;;7.28;5.50;;;14.30;99.90;;;;;;5070267;28;20035;-76
2021/09/21 02:13:39;;;;;;;9.35;6.05;;;14.30;99.90;;;;;;5068709;28;20021;-76
2021/09/21 02:16:06;;;;;;;6.22;5.60;;;14.30;99.90;;;;;;5068178;28;20761;-76
2021/09/21 02:18:32;;;;;;;7.55;5.90;;;14.30;99.90;;;;;;5078658;28;20031;-76
2021/09/21 02:20:58;;;;;;;7.78;5.97;;;14.30;99.90;;;;;;5068483;28;20024;-76
2021/09/21 02:23:23;;;;;;;7.50;5.22;;;14.30;99.90;;;;;;5064159;28;20017;-76
2021/09/21 02:25:49;;;;;;;8.52;6.35;;;14.20;99.90;;;;;;5061924;28;20032;-76
2021/09/21 02:28:15;;;;;;;8.95;6.18;;;14.30;99.90;;;;;;5072900;28;20096;-76
2021/09/21 02:30:41;;;;;;;7.13;6.43;;;14.30;99.90;;;;;;5069998;28;20400;-76
2021/09/21 02:33:08;;;;;;;8.98;6.13;;;14.30;99.90;;;;;;5064711;28;20051;-75
2021/09/21 02:35:34;;;;;;;9.40;6.30;;;14.30;99.90;;;;;;5065727;28;20049;-76
2021/09/21 02:38:00;;;;;;;6.95;5.90;;;14.30;99.90;;;;;;5073283;28;20409;-76
2021/09/21 02:40:28;;;;;;;9.00;6.18;;;14.30;99.90;;;;;;5078277;28;20468;-76
2021/09/21 02:42:54;;;;;;;11.30;6.70;;;14.30;99.90;;;;;;5064119;28;20020;-76
2021/09/21 02:45:20;;;;;;;10.23;6.20;;;14.30;99.90;;;;;;5070673;28;20023;-76
2021/09/21 02:47:46;;;;;;;9.15;6.55;;;14.30;99.90;;;;;;5071008;28;20496;-76
2021/09/21 02:50:11;;;;;;;8.32;6.20;;;14.30;99.90;;;;;;5068142;28;20519;-76
2021/09/21 02:52:38;;;;;;;9.88;6.55;;;14.30;99.90;;;;;;5066205;28;20081;-76
2021/09/21 02:55:05;;;;;;;8.65;6.07;;;14.40;99.90;;;;;;5064092;28;20115;-76
2021/09/21 02:57:34;;;;;;;9.23;6.53;;;14.30;99.90;;;;;;5075458;28;20498;-76
2021/09/21 03:00:03;;;;;;;8.85;6.35;;;14.40;99.90;;;;;;5069904;28;20028;-76
2021/09/21 03:02:32;;;;;;;10.88;7.00;;;14.40;99.90;;;;;;5067887;28;20071;-76
2021/09/21 03:05:01;;;;;;;8.32;6.90;;;14.30;99.90;;;;;;5072232;28;20047;-76
2021/09/21 03:07:35;;;;;;;8.40;7.45;;;14.30;99.90;;;;;;5068945;28;20017;-76
2021/09/21 03:13:01;;;;;;;9.02;6.93;;;14.30;99.90;;;;;;5074452;28;20028;-76
2021/09/21 03:18:11;;;;;;;8.77;6.50;;;14.20;99.90;;;;;;5072672;28;20047;-76
2021/09/21 03:20:37;;;;;;;10.02;7.10;;;14.20;99.90;;;;;;5070114;28;20041;-77
2021/09/21 03:23:02;;;;;;;9.63;6.85;;;14.20;99.90;;;;;;5072817;28;20016;-76
2021/09/21 03:25:28;;;;;;;9.80;7.38;;;14.20;99.90;;;;;;5063664;28;20043;-76
2021/09/21 03:27:54;;;;;;;9.85;6.57;;;14.30;99.90;;;;;;5063782;28;20684;-76
2021/09/21 03:30:19;;;;;;;9.52;6.40;;;14.30;99.90;;;;;;5071754;28;20031;-76
2021/09/21 03:32:45;;;;;;;11.30;7.07;;;14.30;99.90;;;;;;5074837;28;20127;-76
2021/09/21 03:35:11;;;;;;;7.22;6.47;;;14.30;99.90;;;;;;5073917;28;20034;-76
2021/09/21 03:37:37;;;;;;;8.30;7.45;;;14.30;99.90;;;;;;5074128;28;20504;-76
2021/09/21 03:40:07;;;;;;;10.38;8.43;;;14.20;99.90;;;;;;5083538;28;20027;-76
2021/09/21 03:42:33;;;;;;;15.20;7.63;;;14.30;99.90;;;;;;5075925;28;20082;-76
2021/09/21 03:44:59;;;;;;;8.85;7.43;;;14.30;99.90;;;;;;5073089;28;20013;-76
2021/09/21 03:47:25;;;;;;;13.27;6.97;;;14.20;99.90;;;;;;5071510;28;20040;-76
2021/09/21 03:49:50;;;;;;;10.43;7.35;;;14.20;99.90;;;;;;5079419;28;20072;-76
2021/09/21 03:52:16;;;;;;;9.05;7.40;;;14.20;99.90;;;;;;5075271;28;20380;-76
2021/09/21 03:54:42;;;;;;;8.63;7.72;;;14.20;99.90;;;;;;5071322;28;20059;-76
2021/09/21 03:57:07;;;;;;;10.75;7.63;;;14.20;99.90;;;;;;5071264;28;20024;-76
2021/09/21 03:59:33;;;;;;;9.85;7.40;;;14.10;99.90;;;;;;5075144;28;20024;-76
2021/09/21 04:01:58;;;;;;;9.95;7.40;;;14.20;99.90;;;;;;5073035;28;20469;-76
2021/09/21 04:04:24;;;;;;;11.93;7.47;;;14.20;99.90;;;;;;5072894;28;20029;-77
2021/09/21 04:06:50;;;;;;;8.50;7.18;;;14.20;99.90;;;;;;5075830;28;20503;-76
2021/09/21 04:09:15;;;;;;;10.55;8.07;;;14.20;99.90;;;;;;5079413;28;20064;-76
2021/09/21 04:11:41;;;;;;;9.98;7.60;;;14.20;99.90;;;;;;5076180;28;20472;-76
2021/09/21 04:14:07;;;;;;;13.45;7.28;;;14.10;99.90;;;;;;5078867;28;20044;-76
2021/09/21 04:16:33;;;;;;;12.00;7.65;;;14.10;99.90;;;;;;5070982;28;20759;-76
2021/09/21 04:18:59;;;;;;;8.98;7.57;;;14.10;99.90;;;;;;5069889;28;20038;-76
2021/09/21 04:21:26;;;;;;;10.98;8.43;;;14.20;99.90;;;;;;5071356;28;20497;-76
2021/09/21 04:23:52;;;;;;;8.90;6.85;;;14.20;99.90;;;;;;5076829;28;20070;-76
2021/09/21 04:26:18;;;;;;;8.70;6.78;;;14.00;99.90;;;;;;5064557;28;20032;-76
2021/09/21 04:28:45;;;;;;;8.88;7.22;;;14.10;99.90;;;;;;5073080;28;20035;-76
2021/09/21 04:31:15;;;;;;;12.23;7.40;;;14.00;99.90;;;;;;5072771;28;20024;-76
2021/09/21 04:33:43;;;;;;;8.95;6.90;;;14.10;99.90;;;;;;5072903;28;20030;-76
2021/09/21 04:36:10;;;;;;;9.35;7.78;;;14.10;99.90;;;;;;5071907;28;20032;-76
2021/09/21 04:38:38;;;;;;;10.10;7.18;;;14.10;99.90;;;;;;5071972;28;20032;-76
2021/09/21 04:41:04;;;;;;;8.95;7.70;;;14.00;99.90;;;;;;5077448;28;20027;-76
2021/09/21 04:43:31;;;;;;;10.30;7.47;;;14.10;99.90;;;;;;5070276;28;20032;-76
2021/09/21 04:45:58;;;;;;;9.15;7.00;;;14.10;99.90;;;;;;5073155;28;20012;-76
2021/09/21 04:48:23;;;;;;;10.88;7.72;;;14.10;99.90;;;;;;5068979;28;20369;-76
2021/09/21 04:50:50;;;;;;;14.48;7.60;;;14.10;99.90;;;;;;5069625;28;20043;-77
2021/09/21 04:53:15;;;;;;;11.73;7.95;;;14.10;99.90;;;;;;5065025;28;20033;-76
2021/09/21 04:55:41;;;;;;;11.43;7.55;;;14.10;99.90;;;;;;5070607;28;20024;-75
2021/09/21 04:58:07;;;;;;;10.75;7.97;;;14.00;99.90;;;;;;5080868;28;20420;-75
2021/09/21 05:00:33;;;;;;;11.98;8.40;;;13.90;99.90;;;;;;5065078;28;20115;-75
2021/09/21 05:02:59;;;;;;;10.82;8.40;;;13.90;99.90;;;;;;5071583;28;20031;-76
2021/09/21 05:05:25;;;;;;;12.77;8.57;;;13.90;99.90;;;;;;5063705;28;20028;-76
2021/09/21 05:07:51;;;;;;;12.30;8.48;;;13.90;99.90;;;;;;5071449;28;20028;-76
2021/09/21 05:10:17;;;;;;;11.82;8.68;;;13.90;99.90;;;;;;5074839;28;20024;-76
2021/09/21 05:12:43;;;;;;;11.85;8.55;;;13.80;99.90;;;;;;5071772;28;20384;-76
2021/09/21 05:15:10;;;;;;;11.57;8.93;;;13.80;99.90;;;;;;5080796;28;20021;-76
2021/09/21 05:17:37;;;;;;;15.77;8.80;;;13.70;99.90;;;;;;5071434;28;20025;-76
2021/09/21 05:20:04;;;;;;;14.65;9.20;;;13.70;99.90;;;;;;5073756;28;20024;-76
2021/09/21 05:22:30;;;;;;;13.95;8.50;;;13.60;99.90;;;;;;5073812;28;20420;-76
2021/09/21 05:24:55;;;;;;;15.15;9.80;;;13.60;99.90;;;;;;5032315;28;1094709;-77
2021/09/21 05:27:21;;;;;;;14.70;9.23;;;13.50;99.90;;;;;;5069771;28;20018;-76
2021/09/21 05:29:46;;;;;;;10.55;8.63;;;13.50;99.90;;;;;;5069673;28;20546;-76
2021/09/21 05:32:12;;;;;;;9.95;8.43;;;13.50;99.90;;;;;;5076729;28;20024;-76
2021/09/21 05:34:38;;;;;;;9.20;8.13;;;13.40;99.90;;;;;;5070622;28;20150;-76
2021/09/21 05:37:03;;;;;;;9.32;8.13;;;13.40;99.90;;;;;;5072701;28;20036;-76
2021/09/21 05:39:29;;;;;;;13.50;8.45;;;13.30;99.90;;;;;;5076099;28;20484;-76
2021/09/21 05:41:55;;;;;;;10.35;7.60;;;13.30;99.90;;;;;;5066208;28;20037;-76
2021/09/21 05:44:20;;;;;;;13.20;7.97;;;13.30;99.90;;;;;;5068715;28;20422;-73
2021/09/21 05:46:46;;;;;;;11.40;8.63;;;13.30;99.90;;;;;;5065854;28;20103;-75
2021/09/21 05:49:12;;;;;;;11.13;8.30;;;13.20;99.90;;;;;;5079122;28;20031;-75
2021/09/21 05:51:37;;;;;;;13.98;8.90;;;13.20;99.90;;;;;;5071849;28;20424;-76
2021/09/21 05:54:03;;;;;;;10.45;7.57;;;13.20;99.90;;;;;;5070004;28;20059;-75
2021/09/21 05:56:29;;;;;;;12.82;8.10;;;13.20;99.90;;;;;;5068852;28;20036;-76
2021/09/21 05:58:56;;;;;;;13.10;8.73;;;13.20;99.90;;;;;;5066453;28;20072;-76
2021/09/21 06:01:21;;;;;;;12.65;8.52;;;13.10;99.90;;;;;;5068410;28;20059;-76
2021/09/21 06:03:47;;;;;;;13.65;9.75;;;13.10;99.90;;;;;;5069863;28;20049;-76
2021/09/21 06:06:13;;;;;;;14.70;9.75;;;13.10;99.90;;;;;;5066024;28;20063;-75
2021/09/21 06:08:38;;;;;;;13.57;10.10;;;13.20;99.90;;;;;;5072682;28;20021;-76
2021/09/21 06:11:05;;;;;;;12.60;10.05;;;13.20;99.90;;;;;;5067913;28;20112;-75
2021/09/21 06:13:31;;;;;;;15.75;12.35;;;13.20;99.90;;;;;;5065288;28;20444;-76
2021/09/21 06:15:56;;;;;;;15.68;10.70;;;13.20;99.90;;;;;;5065406;28;20270;-76
2021/09/21 06:18:22;;;;;;;15.13;9.88;;;13.20;99.90;;;;;;5072889;28;20028;-75
2021/09/21 06:20:48;;;;;;;15.32;10.90;;;13.20;99.90;;;;;;5071301;28;20068;-75
2021/09/21 06:23:14;;;;;;;19.50;11.43;;;13.10;99.90;;;;;;5075048;28;20025;-76
2021/09/21 06:25:40;;;;;;;15.75;10.02;;;13.10;99.90;;;;;;5068106;28;20032;-76
2021/09/21 06:28:07;;;;;;;14.73;10.90;;;13.10;99.90;;;;;;5065860;28;20037;-76
2021/09/21 06:30:33;;;;;;;16.05;10.20;;;13.10;99.90;;;;;;5071087;28;20037;-76
2021/09/21 06:32:59;;;;;;;13.52;9.05;;;13.00;99.90;;;;;;5065762;28;20017;-76
2021/09/21 06:35:24;;;;;;;17.00;10.77;;;13.00;99.90;;;;;;5071187;28;20039;-76
2021/09/21 06:37:51;;;;;;;14.63;9.95;;;13.00;99.90;;;;;;5067174;28;20019;-76
2021/09/21 06:40:17;;;;;;;14.98;10.80;;;13.00;99.90;;;;;;5068718;28;20388;-76
2021/09/21 06:42:44;;;;;;;23.27;11.55;;;13.00;99.90;;;;;;5067289;28;20039;-76
2021/09/21 06:45:13;;;;;;;15.90;11.27;;;13.10;99.90;;;;;;5066465;28;20025;-76
2021/09/21 06:47:38;;;;;;;12.73;10.60;;;13.00;99.90;;;;;;5068914;28;20473;-76
2021/09/21 06:50:05;;;;;;;16.75;12.02;;;12.90;99.90;;;;;;5070265;28;20039;-76
2021/09/21 06:52:31;;;;;;;14.85;10.07;;;13.00;99.90;;;;;;5065235;28;20515;-76
2021/09/21 06:54:57;;;;;;;15.05;10.70;;;12.90;99.90;;;;;;5066318;28;20033;-76
2021/09/21 06:57:23;;;;;;;16.90;11.02;;;13.00;99.90;;;;;;5071014;28;20037;-76
2021/09/21 06:59:49;;;;;;;15.63;10.38;;;12.90;99.90;;;;;;5067837;28;20020;-76
2021/09/21 07:02:15;;;;;;;15.13;11.38;;;12.90;99.90;;;;;;5070720;28;20469;-76
2021/09/21 07:04:40;;;;;;;16.13;11.18;;;13.00;99.90;;;;;;5070757;28;20020;-76
2021/09/21 07:07:06;;;;;;;14.77;11.38;;;13.00;99.90;;;;;;5067656;28;20032;-76
2021/09/21 07:09:32;;;;;;;15.38;11.80;;;13.00;99.90;;;;;;5083426;28;20023;-76
2021/09/21 07:11:58;;;;;;;15.60;11.95;;;13.00;99.90;;;;;;5070510;28;20378;-75
2021/09/21 07:14:24;;;;;;;18.63;12.05;;;13.00;99.90;;;;;;5071942;28;20021;-76
2021/09/21 07:16:49;;;;;;;19.23;12.23;;;13.00;99.90;;;;;;5069524;28;20044;-76
2021/09/21 07:19:17;;;;;;;20.95;14.35;;;13.10;99.90;;;;;;5079980;28;20020;-74
2021/09/21 07:21:47;;;;;;;21.92;14.50;;;13.20;99.90;;;;;;5074083;28;20016;-75
2021/09/21 07:24:17;;;;;;;16.40;12.10;;;13.20;99.90;;;;;;5078697;28;20440;-76
2021/09/21 07:26:46;;;;;;;16.52;11.98;;;13.30;99.90;;;;;;5065708;28;20040;-73
2021/09/21 07:29:12;;;;;;;20.95;13.07;;;13.30;99.90;;;;;;5066557;28;20528;-74
2021/09/21 07:31:38;;;;;;;17.20;13.07;;;13.30;99.90;;;;;;5070755;28;20111;-77
2021/09/21 07:34:04;;;;;;;24.98;13.90;;;13.40;99.90;;;;;;5069392;28;20066;-78
2021/09/21 07:36:30;;;;;;;14.95;12.00;;;13.30;99.90;;;;;;5073525;28;20040;-79
2021/09/21 07:38:56;;;;;;;18.88;11.27;;;13.30;99.90;;;;;;5072327;28;20028;-76
2021/09/21 07:41:22;;;;;;;17.60;12.52;;;13.30;99.90;;;;;;5072760;28;20027;-77
2021/09/21 07:43:48;;;;;;;86.00;14.63;;;13.40;99.90;;;;;;5049586;28;20056;-76
2021/09/21 07:46:14;;;;;;;18.42;12.30;;;13.40;99.90;;;;;;5069165;28;20496;-77
2021/09/21 07:48:39;;;;;;;51.03;14.02;;;13.40;99.90;;;;;;5071785;28;20026;-79
2021/09/21 07:51:06;;;;;;;21.90;13.75;;;13.50;99.90;;;;;;5074087;28;20563;-77
2021/09/21 07:53:31;;;;;;;18.73;11.70;;;13.50;99.90;;;;;;5067548;28;20021;-77
2021/09/21 07:55:57;;;;;;;18.65;11.65;;;13.60;99.90;;;;;;5056753;28;20050;-77
2021/09/21 07:58:23;;;;;;;19.80;13.52;;;13.70;99.90;;;;;;5078678;28;20032;-77
2021/09/21 08:00:53;;;;;;;21.50;12.25;;;13.80;99.90;;;;;;5069238;28;20465;-79
2021/09/21 08:03:19;;;;;;;14.82;11.43;;;13.90;99.90;;;;;;5069360;28;20021;-78
2021/09/21 08:05:45;;;;;;;17.13;12.80;;;14.00;99.90;;;;;;5072531;28;20370;-78
2021/09/21 08:08:11;;;;;;;18.80;12.57;;;14.10;99.90;;;;;;5067012;28;20025;-78
2021/09/21 08:10:37;;;;;;;20.60;12.23;;;14.10;99.90;;;;;;5067694;28;20033;-78
2021/09/21 08:13:03;;;;;;;17.77;10.73;;;14.10;99.90;;;;;;5065387;28;20020;-78
2021/09/21 08:15:30;;;;;;;18.70;10.73;;;14.30;99.90;;;;;;5069155;28;20044;-78
2021/09/21 08:18:00;;;;;;;17.85;10.38;;;14.30;99.90;;;;;;5061407;28;20009;-78
2021/09/21 08:20:27;;;;;;;17.77;10.02;;;14.40;99.90;;;;;;5067532;28;20131;-78
2021/09/21 08:22:53;;;;;;;14.75;9.90;;;14.50;99.90;;;;;;5066987;28;20017;-78
2021/09/21 08:25:19;;;;;;;16.00;10.60;;;14.60;99.90;;;;;;5064929;28;20033;-78
2021/09/21 08:27:46;;;;;;;15.85;10.02;;;14.70;99.90;;;;;;5065818;28;20031;-77
2021/09/21 08:30:12;;;;;;;16.00;9.23;;;14.80;99.90;;;;;;5071688;28;20035;-78
2021/09/21 08:32:38;;;;;;;15.82;9.30;;;14.90;99.90;;;;;;5067976;28;20035;-79
2021/09/21 08:35:05;;;;;;;14.38;8.73;;;14.90;99.90;;;;;;5069647;28;20031;-78
2021/09/21 08:37:31;;;;;;;12.63;8.10;;;15.00;99.90;;;;;;5068746;28;20134;-78
2021/09/21 08:39:57;;;;;;;13.80;8.15;;;15.00;99.90;;;;;;5057697;28;20108;-77
2021/09/21 08:42:23;;;;;;;16.02;8.98;;;15.10;99.90;;;;;;5067511;28;20154;-77
2021/09/21 08:44:49;;;;;;;9.93;7.78;;;15.20;99.90;;;;;;5066489;28;20036;-77
2021/09/21 08:47:15;;;;;;;13.18;8.02;;;15.30;99.90;;;;;;5072374;28;20012;-77
2021/09/21 08:49:41;;;;;;;13.13;7.80;;;15.40;99.90;;;;;;5066554;28;20056;-78
2021/09/21 08:52:07;;;;;;;11.30;7.00;;;15.40;99.90;;;;;;5070542;28;20064;-79
2021/09/21 08:54:33;;;;;;;11.35;7.65;;;15.50;99.90;;;;;;5069973;28;20035;-79
2021/09/21 08:57:00;;;;;;;10.43;7.03;;;15.60;99.90;;;;;;5074769;28;20447;-78
2021/09/21 08:59:33;;;;;;;10.68;6.40;;;15.60;99.90;;;;;;5071185;28;20032;-77
2021/09/21 09:02:07;;;;;;;8.63;6.25;;;15.70;99.90;;;;;;5072267;28;20028;-78
2021/09/21 09:04:33;;;;;;;9.65;7.07;;;15.90;99.90;;;;;;5072892;28;20024;-78
2021/09/21 09:07:00;;;;;;;8.82;6.65;;;15.90;99.90;;;;;;5082627;28;20145;-78
2021/09/21 09:09:29;;;;;;;10.88;6.10;;;15.90;99.90;;;;;;5061035;28;20028;-78
2021/09/21 09:11:58;;;;;;;9.07;6.35;;;15.90;99.90;;;;;;5071809;28;20032;-78
2021/09/21 09:14:26;;;;;;;8.35;6.22;;;15.90;99.90;;;;;;5072054;28;20071;-77
2021/09/21 09:16:54;;;;;;;8.60;5.35;;;16.00;99.90;;;;;;5071391;28;20039;-79
2021/09/21 09:19:20;;;;;;;11.63;5.63;;;16.20;99.90;;;;;;5071669;28;20032;-78
2021/09/21 09:21:46;;;;;;;8.02;5.05;;;16.30;99.90;;;;;;5077167;28;20034;-79
2021/09/21 09:24:13;;;;;;;5.43;4.32;;;16.40;99.90;;;;;;5069621;28;20021;-78
2021/09/21 09:26:42;;;;;;;5.63;4.40;;;16.50;99.90;;;;;;5067741;28;20032;-78
2021/09/21 09:29:13;;;;;;;6.75;4.13;;;16.60;99.90;;;;;;5071854;28;20043;-78
2021/09/21 09:31:42;;;;;;;7.25;4.65;;;16.80;99.90;;;;;;5068514;28;20021;-78
2021/09/21 09:34:21;;;;;;;6.28;4.63;;;16.90;99.90;;;;;;5076727;28;20050;-78
2021/09/21 09:37:00;;;;;;;6.30;4.45;;;16.90;99.90;;;;;;5073221;28;20066;-79
2021/09/21 09:39:30;;;;;;;9.57;4.00;;;17.00;99.90;;;;;;5076006;28;20020;-78
2021/09/21 09:41:58;;;;;;;5.35;3.65;;;17.20;99.90;;;;;;5083437;28;20069;-78
2021/09/21 09:44:27;;;;;;;7.07;3.63;;;17.30;99.90;;;;;;5069528;28;20023;-79
2021/09/21 09:47:03;;;;;;;5.47;3.20;;;17.40;99.90;;;;;;5074635;28;20029;-79
2021/09/21 09:49:38;;;;;;;6.80;3.75;;;17.50;99.90;;;;;;5073764;28;20090;-79
2021/09/21 09:52:10;;;;;;;7.32;3.67;;;17.50;99.90;;;;;;5079427;28;20082;-79
2021/09/21 09:54:38;;;;;;;5.85;3.47;;;17.60;99.90;;;;;;5071799;28;20881;-79
2021/09/21 09:57:05;;;;;;;5.63;3.50;;;17.70;99.90;;;;;;5074959;28;20047;-78
2021/09/21 09:59:31;;;;;;;7.45;4.65;;;17.80;99.90;;;;;;5073330;28;20468;-78
2021/09/21 10:01:57;;;;;;;5.40;4.28;;;17.90;98.80;;;;;;5075429;28;20051;-78
2021/09/21 10:04:23;;;;;;;7.70;4.80;;;18.00;98.30;;;;;;5063882;28;20031;-78
2021/09/21 10:06:50;;;;;;;7.45;4.25;;;18.10;98.80;;;;;;5073870;28;20016;-78
2021/09/21 10:09:17;;;;;;;9.95;4.03;;;18.20;99.90;;;;;;5070036;28;20032;-74
2021/09/21 10:11:46;;;;;;;5.63;4.03;;;18.30;99.90;;;;;;5070408;28;20016;-78
2021/09/21 10:14:13;;;;;;;5.68;4.20;;;18.40;99.90;;;;;;5071114;28;20499;-78
2021/09/21 10:17:07;;;;;;;7.18;4.43;;;18.30;99.90;;;;;;5073606;28;20029;-78
2021/09/21 10:19:35;;;;;;;7.05;4.68;;;18.40;99.90;;;;;;5068937;28;20147;-78
2021/09/21 10:22:01;;;;;;;5.50;3.90;;;18.40;99.50;;;;;;5074909;28;21255;-78
2021/09/21 10:24:50;;;;;;;8.18;3.75;;;18.40;99.90;;;;;;5072181;28;20051;-78
2021/09/21 10:27:24;;;;;;;8.60;3.88;;;18.50;99.90;;;;;;5070781;28;20441;-78
2021/09/21 10:30:06;;;;;;;6.63;5.20;;;18.50;99.90;;;;;;5073003;28;20025;-77
2021/09/21 10:32:40;;;;;;;;;;;18.60;99.90;;;;;;5065798;28;20025;-78
2021/09/21 10:35:13;;;;;;;6.63;5.40;;;18.60;99.60;;;;;;5060175;28;19915;-77
2021/09/21 10:37:39;;;;;;;5.47;4.10;;;18.80;99.90;;;;;;5074264;28;20595;-78
2021/09/21 10:40:07;;;;;;;6.35;3.72;;;18.80;99.90;;;;;;5074501;28;20562;-78
2021/09/21 10:42:33;;;;;;;5.38;4.10;;;18.90;99.90;;;;;;5069446;28;20489;-79
2021/09/21 10:45:02;;;;;;;7.75;4.00;;;18.90;99.40;;;;;;5072701;28;20025;-78
2021/09/21 10:47:31;;;;;;;5.53;4.28;;;19.00;99.90;;;;;;5074148;28;20028;-77
2021/09/21 10:50:15;;;;;;;4.32;3.60;;;19.00;99.90;;;;;;5075431;28;20017;-78
2021/09/21 10:52:41;;;;;;;5.38;3.83;;;19.10;98.20;;;;;;5072840;28;20024;-78
2021/09/21 10:55:09;;;;;;;7.45;4.45;;;19.20;99.90;;;;;;5078689;28;20054;-78
2021/09/21 10:57:44;;;;;;;7.13;4.47;;;19.20;98.30;;;;;;5067814;28;20033;-78
2021/09/21 11:00:11;;;;;;;7.35;4.05;;;19.20;98.40;;;;;;5071547;28;20032;-77
2021/09/21 11:02:40;;;;;;;5.65;3.83;;;19.40;98.20;;;;;;5066096;28;20024;-78
2021/09/21 11:05:09;;;;;;;5.90;3.63;;;19.40;98.60;;;;;;5072277;28;20097;-78
2021/09/21 11:07:37;;;;;;;5.90;3.15;;;19.50;98.60;;;;;;5069088;28;20021;-78
2021/09/21 11:10:05;;;;;;;7.07;3.80;;;19.60;99.50;;;;;;5075594;28;20066;-77
2021/09/21 11:12:31;;;;;;;8.98;3.65;;;19.70;97.80;;;;;;5070077;28;20020;-78
2021/09/21 11:15:05;;;;;;;6.70;3.58;;;19.80;98.60;;;;;;5073242;28;20035;-77
2021/09/21 11:17:31;;;;;;;4.88;3.53;;;19.80;97.30;;;;;;5072588;28;20086;-79
2021/09/21 11:19:58;;;;;;;8.63;4.07;;;19.70;98.80;;;;;;5072626;28;20024;-79
2021/09/21 11:22:29;;;;;;;8.10;4.07;;;19.70;96.90;;;;;;5074815;28;20392;-77
2021/09/21 11:25:00;;;;;;;7.57;3.90;;;19.80;99.90;;;;;;5071286;28;20569;-78
2021/09/21 11:27:27;;;;;;;4.90;3.40;;;20.20;98.10;;;;;;5065904;28;20024;-77
2021/09/21 11:30:07;;;;;;;6.82;4.18;;;20.20;98.60;;;;;;5073673;28;20020;-79
2021/09/21 11:32:34;;;;;;;6.40;4.20;;;20.20;97.90;;;;;;5072442;28;20032;-79
2021/09/21 11:35:07;;;;;;;5.57;4.10;;;20.30;95.50;;;;;;5070087;28;20111;-78
2021/09/21 11:37:32;;;;;;;6.32;3.92;;;20.30;95.30;;;;;;5070217;28;20071;-78
2021/09/21 11:39:58;;;;;;;5.57;3.92;;;20.20;96.70;;;;;;5076076;28;20495;-78
2021/09/21 11:42:29;;;;;;;5.50;3.20;;;20.20;97.90;;;;;;5071359;28;20068;-78
2021/09/21 11:45:10;;;;;;;3.75;3.28;;;20.40;96.00;;;;;;5069063;28;20082;-79
2021/09/21 11:47:47;;;;;;;5.97;3.60;;;20.60;97.00;;;;;;5075981;28;20816;-79
2021/09/21 11:50:18;;;;;;;5.18;3.17;;;20.40;96.30;;;;;;5061724;28;20056;-78
2021/09/21 11:52:59;;;;;;;3.80;3.22;;;20.40;96.90;;;;;;5069046;28;20032;-81
2021/09/21 11:55:28;;;;;;;3.85;3.15;;;20.40;97.20;;;;;;5070988;28;20028;-79
2021/09/21 11:57:55;;;;;;;6.25;3.30;;;20.30;98.30;;;;;;5072318;28;20040;-77
2021/09/21 12:00:24;;;;;;;4.93;3.67;;;20.50;96.60;;;;;;5070724;28;20023;-75
2021/09/21 12:03:04;;;;;;;4.75;3.88;;;20.50;95.50;;;;;;5078109;28;20029;-76
2021/09/21 12:05:31;;;;;;;5.47;3.33;;;20.50;94.70;;;;;;5062743;28;20040;-75
2021/09/21 12:08:00;;;;;;;4.63;2.75;;;20.60;95.30;;;;;;5079785;28;20101;-75
2021/09/21 12:10:28;;;;;;;2.95;2.65;;;20.70;95.10;;;;;;5078980;28;20415;-76
2021/09/21 12:13:05;;;;;;;5.90;2.72;;;20.70;96.20;;;;;;5073161;28;20027;-75
2021/09/21 12:15:31;;;;;;;7.43;2.90;;;20.60;95.60;;;;;;5072490;28;20051;-75
2021/09/21 12:17:58;;;;;;;4.00;3.25;;;20.50;95.80;;;;;;5076137;28;20012;-76
2021/09/21 12:20:26;;;;;;;3.60;3.20;;;20.50;95.10;;;;;;5075311;28;20118;-75
2021/09/21 12:22:53;;;;;;;4.55;2.85;;;20.50;94.20;;;;;;5071616;28;20059;-76
2021/09/21 12:25:22;;;;;;;4.53;2.50;;;20.60;94.30;;;;;;5068537;28;20509;-76
2021/09/21 12:27:54;;;;;;;5.60;3.15;;;20.60;97.90;;;;;;5070763;28;20066;-74
2021/09/21 12:30:23;;;;;;;4.00;2.75;;;20.70;94.50;;;;;;5074342;28;20154;-76
2021/09/21 12:33:00;;;;;;;4.15;2.67;;;20.60;96.60;;;;;;5073209;28;20055;-78
2021/09/21 12:35:31;;;;;;;4.65;3.13;;;20.50;96.80;;;;;;5072528;28;20384;-76
2021/09/21 12:38:05;;;;;;;3.22;2.72;;;20.50;95.10;;;;;;5065698;28;20028;-77
2021/09/21 12:40:31;;;;;;;3.25;2.42;;;20.60;95.10;;;;;;5070404;28;20025;-76
2021/09/21 12:43:02;;;;;;;4.22;2.20;;;20.80;96.60;;;;;;5068879;28;20036;-81
2021/09/21 12:45:28;;;;;;;4.45;2.67;;;20.90;96.70;;;;;;5062505;28;20025;-76
2021/09/21 12:47:53;;;;;;;3.75;2.35;;;20.70;95.60;;;;;;5069881;28;20090;-77
2021/09/21 12:50:21;;;;;;;4.85;2.55;;;20.60;94.80;;;;;;5073708;28;20033;-77
2021/09/21 12:52:54;;;;;;;5.03;2.60;;;20.70;97.90;;;;;;5075414;28;20495;-77